createdAt,value
2023-10-06T00:00:56.340Z,100286.44
2023-10-06T00:03:24.642Z,100278.86
2023-10-06T00:05:54.781Z,100278.55
2023-10-06T00:08:23.110Z,100277.05
2023-10-06T00:10:53.232Z,100275.16
2023-10-06T00:13:25.299Z,100272.45
2023-10-06T00:15:53.327Z,100274.29
2023-10-06T00:18:21.590Z,100270.36
2023-10-06T00:20:57.216Z,100269.38
2023-10-06T00:23:28.888Z,100267.87
2023-10-06T00:25:56.981Z,100272.52
2023-10-06T00:28:30.997Z,100265.41
2023-10-06T00:30:59.458Z,100267.37
2023-10-06T00:33:34.100Z,100264.44
2023-10-06T00:36:30.231Z,100264.36
2023-10-06T00:38:58.028Z,100267.27
2023-10-06T00:41:28.918Z,100265.02
2023-10-06T00:43:58.290Z,100265.13
2023-10-06T00:46:26.370Z,100266.24
2023-10-06T00:48:55.238Z,100262.69
2023-10-06T00:51:24.491Z,100264.90
2023-10-06T00:53:53.086Z,100262.91
2023-10-06T00:56:25.003Z,100260.92
2023-10-06T00:58:53.712Z,100261.77
2023-10-06T01:01:23.477Z,100266.33
2023-10-06T01:04:12.598Z,100260.83
2023-10-06T01:06:43.101Z,100259.41
2023-10-06T01:09:13.149Z,100260.95
2023-10-06T01:11:48.551Z,100256.29
2023-10-06T01:14:26.566Z,100256.29
2023-10-06T01:17:06.477Z,100251.17
2023-10-06T01:19:34.920Z,100249.29
2023-10-06T01:22:21.758Z,100247.95
2023-10-06T01:24:50.801Z,100246.27
2023-10-06T01:27:18.595Z,100245.66
2023-10-06T01:29:46.933Z,100240.60
2023-10-06T01:32:17.267Z,100237.17
2023-10-06T01:34:46.372Z,100236.89
2023-10-06T01:37:17.237Z,100233.83
2023-10-06T01:39:47.474Z,100235.91
2023-10-06T01:42:18.594Z,100234.38
2023-10-06T01:44:46.926Z,100235.91
2023-10-06T01:47:15.351Z,100234.00
2023-10-06T01:49:45.235Z,100230.91
2023-10-06T01:52:15.314Z,100225.80
2023-10-06T01:54:46.360Z,100226.05
2023-10-06T01:57:16.955Z,100228.17
2023-10-06T01:59:45.541Z,100223.33
2023-10-06T02:02:15.110Z,100225.86
2023-10-06T02:04:50.555Z,100223.92
2023-10-06T02:07:19.915Z,100221.48
2023-10-06T02:09:47.715Z,100215.65
2023-10-06T02:12:17.288Z,100218.88
2023-10-06T02:14:45.800Z,100217.65
2023-10-06T02:17:14.171Z,100217.02
2023-10-06T02:19:43.279Z,100213.95
2023-10-06T02:22:12.682Z,100213.95
2023-10-06T02:24:40.842Z,100214.02
2023-10-06T02:27:11.158Z,100208.36
2023-10-06T02:29:39.085Z,100212.80
2023-10-06T02:32:09.908Z,100212.39
2023-10-06T02:34:40.481Z,100213.30
2023-10-06T02:37:09.836Z,100211.97
2023-10-06T02:39:44.723Z,100208.52
2023-10-06T02:42:15.605Z,100213.14
2023-10-06T02:44:43.916Z,100210.69
2023-10-06T02:47:13.003Z,100208.45
2023-10-06T02:49:50.890Z,100204.02
2023-10-06T02:52:22.597Z,100205.10
2023-10-06T02:55:06.252Z,100197.58
2023-10-06T02:57:37.455Z,100194.65
2023-10-06T03:00:25.036Z,100195.23
2023-10-06T03:02:57.602Z,100191.91
2023-10-06T03:05:40.481Z,100188.33
2023-10-06T03:08:11.453Z,100186.23
2023-10-06T03:10:44.590Z,100187.08
2023-10-06T03:13:16.325Z,100185.14
2023-10-06T03:15:47.637Z,100178.96
2023-10-06T03:18:17.418Z,100178.20
2023-10-06T03:20:51.409Z,100173.20
2023-10-06T03:23:28.109Z,100173.73
2023-10-06T03:25:57.790Z,100176.13
2023-10-06T03:28:38.586Z,100173.23
2023-10-06T03:31:22.295Z,100172.46
2023-10-06T03:33:56.218Z,100170.36
2023-10-06T03:36:38.888Z,100170.27
2023-10-06T03:39:09.479Z,100167.35
2023-10-06T03:41:38.933Z,100163.74
2023-10-06T03:44:06.861Z,100158.64
2023-10-06T03:46:39.748Z,100157.09
2023-10-06T03:49:09.583Z,100160.02
2023-10-06T03:51:40.353Z,100158.73
2023-10-06T03:54:11.541Z,100162.23
2023-10-06T03:56:39.551Z,100155.86
2023-10-06T03:59:14.654Z,100153.67
2023-10-06T04:01:46.708Z,100152.45
2023-10-06T04:04:23.744Z,100152.86
2023-10-06T04:06:52.105Z,100153.33
2023-10-06T04:09:29.792Z,100149.75
2023-10-06T04:11:58.740Z,100143.48
2023-10-06T04:14:29.387Z,100140.80
2023-10-06T04:16:59.598Z,100144.92
2023-10-06T04:19:28.063Z,100142.54
2023-10-06T04:21:56.316Z,100140.70
2023-10-06T04:24:24.446Z,100145.10
2023-10-06T04:26:53.424Z,100144.89
2023-10-06T04:29:21.231Z,100140.65
2023-10-06T04:31:49.260Z,100135.64
2023-10-06T04:34:17.428Z,100139.90
2023-10-06T04:36:45.271Z,100142.83
2023-10-06T04:39:17.954Z,100145.81
2023-10-06T04:41:45.824Z,100144.23
2023-10-06T04:44:14.006Z,100142.65
2023-10-06T04:46:42.649Z,100147.84
2023-10-06T04:49:11.200Z,100147.86
2023-10-06T04:51:39.527Z,100150.06
2023-10-06T04:54:09.848Z,100151.58
2023-10-06T04:56:37.907Z,100151.59
2023-10-06T04:59:08.010Z,100150.88
2023-10-06T05:01:36.474Z,100152.83
2023-10-06T05:04:07.773Z,100156.61
2023-10-06T05:06:35.666Z,100159.48
2023-10-06T05:09:04.279Z,100159.80
2023-10-06T05:11:34.192Z,100154.50
2023-10-06T05:14:02.768Z,100156.14
2023-10-06T05:16:30.907Z,100150.74
2023-10-06T05:18:58.855Z,100145.52
2023-10-06T05:21:27.288Z,100147.58
2023-10-06T05:23:57.404Z,100145.19
2023-10-06T05:26:25.582Z,100142.86
2023-10-06T05:28:54.180Z,100148.02
2023-10-06T05:31:23.874Z,100147.04
2023-10-06T05:33:52.869Z,100150.80
2023-10-06T05:36:21.574Z,100151.95
2023-10-06T05:38:50.996Z,100154.56
2023-10-06T05:41:19.356Z,100156.23
2023-10-06T05:43:47.379Z,100153.63
2023-10-06T05:46:15.558Z,100148.27
2023-10-06T05:48:44.875Z,100145.46
2023-10-06T05:51:16.530Z,100141.73
2023-10-06T05:53:45.934Z,100133.13
2023-10-06T05:56:14.188Z,100133.04
2023-10-06T05:58:44.688Z,100130.13
2023-10-06T06:01:15.058Z,100127.45
2023-10-06T06:03:51.481Z,100119.83
2023-10-06T06:06:24.458Z,100119.60
2023-10-06T06:08:53.415Z,100113.10
2023-10-06T06:11:22.175Z,100110.99
2023-10-06T06:14:02.620Z,100108.27
2023-10-06T06:16:38.040Z,100112.41
2023-10-06T06:19:07.426Z,100114.27
2023-10-06T06:21:36.235Z,100113.38
2023-10-06T06:24:07.532Z,100106.61
2023-10-06T06:26:39.026Z,100110.46
2023-10-06T06:29:09.751Z,100108.50
2023-10-06T06:31:38.764Z,100103.78
2023-10-06T06:34:06.784Z,100094.87
2023-10-06T06:36:34.868Z,100094.65
2023-10-06T06:39:04.914Z,100092.69
2023-10-06T06:41:34.581Z,100087.36
2023-10-06T06:44:02.658Z,100089.30
2023-10-06T06:46:33.487Z,100083.48
2023-10-06T06:49:01.627Z,100079.82
2023-10-06T06:51:29.950Z,100074.79
2023-10-06T06:53:58.615Z,100069.41
2023-10-06T06:56:30.399Z,100076.30
2023-10-06T06:59:02.372Z,100073.52
2023-10-06T07:01:30.708Z,100069.56
2023-10-06T07:04:02.921Z,100074.41
2023-10-06T07:06:32.894Z,100071.94
2023-10-06T07:09:01.433Z,100071.08
2023-10-06T07:11:29.671Z,100077.69
2023-10-06T07:13:57.663Z,100076.23
2023-10-06T07:16:26.298Z,100071.73
2023-10-06T07:18:54.963Z,100074.42
2023-10-06T07:21:24.212Z,100074.23
2023-10-06T07:23:53.589Z,100072.08
2023-10-06T07:26:23.930Z,100066.34
2023-10-06T07:28:53.693Z,100074.25
2023-10-06T07:31:21.615Z,100073.43
2023-10-06T07:33:49.715Z,100075.34
2023-10-06T07:36:19.497Z,100069.33
2023-10-06T07:38:47.863Z,100066.44
2023-10-06T07:41:22.137Z,100067.52
2023-10-06T07:43:50.995Z,100073.73
2023-10-06T07:46:19.489Z,100068.10
2023-10-06T07:48:47.784Z,100064.34
2023-10-06T07:51:15.697Z,100068.01
2023-10-06T07:53:44.687Z,100067.23
2023-10-06T07:56:14.812Z,100065.21
2023-10-06T07:58:42.836Z,100069.21
2023-10-06T08:01:12.446Z,100066.38
2023-10-06T08:03:40.693Z,100066.77
2023-10-06T08:06:09.582Z,100076.54
2023-10-06T08:08:38.752Z,100075.52
2023-10-06T08:11:07.717Z,100070.55
2023-10-06T08:13:40.185Z,100065.05
2023-10-06T08:16:08.314Z,100060.30
2023-10-06T08:18:36.738Z,100049.83
2023-10-06T08:21:05.301Z,100044.81
2023-10-06T08:23:33.893Z,100049.52
2023-10-06T08:26:08.750Z,100048.27
2023-10-06T08:28:36.597Z,100047.08
2023-10-06T08:31:04.963Z,100051.33
2023-10-06T08:33:33.984Z,100050.20
2023-10-06T08:36:03.344Z,100048.42
2023-10-06T08:38:33.606Z,100043.77
2023-10-06T08:41:05.078Z,100041.21
2023-10-06T08:43:34.048Z,100042.33
2023-10-06T08:46:02.115Z,100035.88
2023-10-06T08:48:33.983Z,100036.19
2023-10-06T08:51:05.673Z,100033.72
2023-10-06T08:53:33.778Z,100031.06
2023-10-06T08:56:02.028Z,100025.87
2023-10-06T08:58:30.773Z,100027.71
2023-10-06T09:00:59.547Z,100026.39
2023-10-06T09:03:29.078Z,100025.40
2023-10-06T09:05:57.503Z,100032.21
2023-10-06T09:08:25.614Z,100030.15
2023-10-06T09:10:55.623Z,100031.24
2023-10-06T09:13:23.547Z,100034.27
2023-10-06T09:15:57.324Z,100034.64
2023-10-06T09:18:28.892Z,100031.92
2023-10-06T09:21:00.396Z,100026.05
2023-10-06T09:23:30.418Z,100021.40
2023-10-06T09:25:59.068Z,100026.56
2023-10-06T09:28:28.237Z,100026.29
2023-10-06T09:31:03.209Z,100028.94
2023-10-06T09:33:37.479Z,100024.81
2023-10-06T09:36:09.896Z,100020.18
2023-10-06T09:38:39.134Z,100023.81
2023-10-06T09:41:09.150Z,100020.88
2023-10-06T09:43:41.381Z,100019.24
2023-10-06T09:46:12.712Z,100019.02
2023-10-06T09:48:42.121Z,100024.52
2023-10-06T09:51:11.541Z,100014.27
2023-10-06T09:53:40.586Z,100013.80
2023-10-06T09:56:11.483Z,100007.35
2023-10-06T09:58:50.097Z,100003.70
2023-10-06T10:01:18.520Z,100002.72
2023-10-06T10:03:46.908Z,100000.79
2023-10-06T10:06:17.400Z,99991.96
2023-10-06T10:08:45.675Z,99988.73
2023-10-06T10:11:30.640Z,99999.65
2023-10-06T10:14:04.692Z,100004.10
2023-10-06T10:17:04.023Z,100003.02
2023-10-06T10:19:32.531Z,100005.20
2023-10-06T10:22:00.481Z,100009.30
2023-10-06T10:25:09.825Z,100002.36
2023-10-06T10:27:19.689Z,99991.45
2023-10-06T10:29:48.690Z,100003.88
2023-10-06T10:32:24.650Z,100004.66
2023-10-06T10:35:15.707Z,100004.69
2023-10-06T10:37:57.338Z,100009.55
2023-10-06T10:40:33.500Z,100013.56
2023-10-06T10:43:06.932Z,100015.20
2023-10-06T10:45:36.477Z,100012.05
2023-10-06T10:48:14.819Z,100009.41
2023-10-06T10:50:57.725Z,100011.68
2023-10-06T10:53:29.684Z,100017.15
2023-10-06T10:55:58.003Z,100011.98
2023-10-06T10:58:49.668Z,100020.21
2023-10-06T11:01:33.776Z,100022.47
2023-10-06T11:04:11.598Z,100022.29
2023-10-06T11:06:40.839Z,100025.02
2023-10-06T11:09:38.575Z,100020.10
2023-10-06T11:12:30.996Z,100015.91
2023-10-06T11:15:17.538Z,100010.36
2023-10-06T11:17:45.750Z,100013.09
2023-10-06T11:20:34.998Z,100010.90
2023-10-06T11:23:04.732Z,100007.46
2023-10-06T11:25:40.307Z,100006.73
2023-10-06T11:28:11.196Z,100006.02
2023-10-06T11:30:40.370Z,100006.95
2023-10-06T11:33:10.320Z,99996.02
2023-10-06T11:35:39.539Z,99996.77
2023-10-06T11:38:09.393Z,100004.33
2023-10-06T11:40:37.218Z,100006.27
2023-10-06T11:43:13.779Z,100009.02
2023-10-06T11:45:43.169Z,100007.03
2023-10-06T11:48:31.183Z,100012.36
2023-10-06T11:51:01.968Z,100018.50
2023-10-06T11:53:29.899Z,100020.77
2023-10-06T11:56:15.228Z,100015.45
2023-10-06T11:58:43.868Z,100023.81
2023-10-06T12:01:35.494Z,100024.38
2023-10-06T12:04:06.979Z,100027.13
2023-10-06T12:06:40.223Z,100025.74
2023-10-06T12:09:09.884Z,100028.03
2023-10-06T12:11:40.558Z,100023.61
2023-10-06T12:14:08.550Z,100023.30
2023-10-06T12:16:37.868Z,100019.27
2023-10-06T12:19:07.220Z,100013.26
2023-10-06T12:21:36.646Z,100013.13
2023-10-06T12:24:05.506Z,100016.77
2023-10-06T12:26:34.761Z,100018.80
2023-10-06T12:29:03.555Z,100018.83
2023-10-06T12:31:31.700Z,100019.23
2023-10-06T12:34:05.283Z,100020.05
2023-10-06T12:36:33.639Z,100017.22
2023-10-06T12:39:01.832Z,100017.32
2023-10-06T12:41:29.966Z,100012.95
2023-10-06T12:44:04.603Z,100008.23
2023-10-06T12:46:35.010Z,99999.30
2023-10-06T12:49:08.531Z,99997.75
2023-10-06T12:51:37.439Z,99998.75
2023-10-06T12:54:08.777Z,99992.92
2023-10-06T12:56:37.266Z,99993.48
2023-10-06T12:59:05.519Z,99990.27
2023-10-06T13:01:34.503Z,99996.14
2023-10-06T13:04:02.426Z,99994.27
2023-10-06T13:06:31.768Z,99991.77
2023-10-06T13:09:03.999Z,99991.23
2023-10-06T13:11:31.945Z,99993.33
2023-10-06T13:14:04.722Z,99989.58
2023-10-06T13:16:33.103Z,99998.19
2023-10-06T13:19:00.901Z,99995.66
2023-10-06T13:21:28.801Z,99997.27
2023-10-06T13:24:02.406Z,99996.11
2023-10-06T13:26:42.653Z,99999.06
2023-10-06T13:29:12.350Z,99996.39
2023-10-06T13:31:40.687Z,99992.20
2023-10-06T13:34:09.366Z,99990.54
2023-10-06T13:36:37.617Z,99995.61
2023-10-06T13:39:10.962Z,99997.54
2023-10-06T13:41:43.174Z,100004.17
2023-10-06T13:44:12.134Z,100006.13
2023-10-06T13:46:41.966Z,100006.88
2023-10-06T13:49:10.062Z,100004.23
2023-10-06T13:51:38.117Z,100008.14
2023-10-06T13:54:07.108Z,100014.05
2023-10-06T13:56:40.755Z,100017.73
2023-10-06T13:59:10.993Z,100024.85
2023-10-06T14:01:41.261Z,100033.77
2023-10-06T14:04:09.647Z,100038.66
2023-10-06T14:06:38.422Z,100038.59
2023-10-06T14:09:07.179Z,100035.41
2023-10-06T14:11:35.175Z,100030.01
2023-10-06T14:14:14.950Z,100033.64
2023-10-06T14:16:44.066Z,100033.17
2023-10-06T14:19:13.453Z,100040.30
2023-10-06T14:21:41.516Z,100044.21
2023-10-06T14:24:12.075Z,100048.60
2023-10-06T14:26:42.091Z,100053.50
2023-10-06T14:29:10.351Z,100058.19
2023-10-06T14:31:49.486Z,100060.69
2023-10-06T14:34:47.934Z,100063.84
2023-10-06T14:37:29.076Z,100073.04
2023-10-06T14:40:15.873Z,100077.59
2023-10-06T14:43:02.529Z,100078.84
2023-10-06T14:45:49.231Z,100082.56
2023-10-06T14:48:17.420Z,100086.51
2023-10-06T14:50:45.469Z,100091.05
2023-10-06T14:53:13.603Z,100098.74
2023-10-06T14:55:41.577Z,100103.90
2023-10-06T14:58:10.217Z,100107.51
2023-10-06T15:00:39.305Z,100114.67
2023-10-06T15:03:10.237Z,100115.85
2023-10-06T15:05:38.329Z,100115.59
2023-10-06T15:08:12.040Z,100121.73
2023-10-06T15:10:43.508Z,100122.85
2023-10-06T15:13:14.378Z,100128.27
2023-10-06T15:15:43.934Z,100135.42
2023-10-06T15:18:21.611Z,100140.45
2023-10-06T15:20:50.921Z,100141.20
2023-10-06T15:23:19.621Z,100142.84
2023-10-06T15:26:08.773Z,100142.77
2023-10-06T15:28:39.444Z,100153.63
2023-10-06T15:31:07.865Z,100161.48
2023-10-06T15:33:35.659Z,100157.23
2023-10-06T15:36:04.348Z,100161.68
2023-10-06T15:38:32.975Z,100159.81
2023-10-06T15:41:04.106Z,100164.91
2023-10-06T15:43:32.479Z,100167.02
2023-10-06T15:46:05.043Z,100172.20
2023-10-06T15:48:34.928Z,100176.55
2023-10-06T15:51:04.359Z,100176.14
2023-10-06T15:53:34.042Z,100179.77
2023-10-06T15:56:04.446Z,100183.20
2023-10-06T15:58:34.192Z,100185.61
2023-10-06T16:01:13.203Z,100192.42
2023-10-06T16:03:43.332Z,100195.59
2023-10-06T16:06:11.361Z,100200.05
2023-10-06T16:08:40.465Z,100201.42
2023-10-06T16:11:09.339Z,100199.09
2023-10-06T16:13:39.968Z,100199.70
2023-10-06T16:16:12.944Z,100202.52
2023-10-06T16:18:45.805Z,100207.20
2023-10-06T16:21:17.308Z,100213.61
2023-10-06T16:23:47.847Z,100212.56
2023-10-06T16:26:16.205Z,100216.32
2023-10-06T16:28:44.806Z,100217.95
2023-10-06T16:31:13.887Z,100220.40
2023-10-06T16:33:42.810Z,100225.73
2023-10-06T16:36:12.609Z,100226.91
2023-10-06T16:38:42.353Z,100230.56
2023-10-06T16:41:12.930Z,100234.58
2023-10-06T16:43:42.144Z,100239.96
2023-10-06T16:46:12.181Z,100244.52
2023-10-06T16:48:40.806Z,100247.09
2023-10-06T16:51:12.265Z,100251.34
2023-10-06T16:53:40.571Z,100259.69
2023-10-06T16:56:09.789Z,100261.66
2023-10-06T16:58:37.818Z,100267.20
2023-10-06T17:01:06.875Z,100267.78
2023-10-06T17:03:35.014Z,100272.80
2023-10-06T17:06:05.355Z,100276.16
2023-10-06T17:08:33.579Z,100276.48
2023-10-06T17:11:34.248Z,100271.92
2023-10-06T17:14:02.149Z,100275.77
2023-10-06T17:16:30.653Z,100284.22
2023-10-06T17:18:58.821Z,100290.58
2023-10-06T17:21:27.924Z,100292.59
2023-10-06T17:23:55.755Z,100289.77
2023-10-06T17:26:23.861Z,100295.20
2023-10-06T17:28:51.793Z,100291.23
2023-10-06T17:31:20.007Z,100293.05
2023-10-06T17:33:50.854Z,100290.25
2023-10-06T17:36:20.291Z,100290.14
2023-10-06T17:38:48.702Z,100288.99
2023-10-06T17:41:18.012Z,100290.75
2023-10-06T17:43:50.288Z,100303.43
2023-10-06T17:46:18.619Z,100308.61
2023-10-06T17:48:47.098Z,100304.27
2023-10-06T17:51:16.618Z,100309.68
2023-10-06T17:53:45.045Z,100309.20
2023-10-06T17:56:13.660Z,100312.66
2023-10-06T17:58:41.739Z,100312.63
2023-10-06T18:01:10.438Z,100311.46
2023-10-06T18:03:38.519Z,100318.83
2023-10-06T18:06:06.983Z,100321.08
2023-10-06T18:08:35.013Z,100324.16
2023-10-06T18:11:02.928Z,100330.73
2023-10-06T18:13:30.927Z,100334.00
2023-10-06T18:15:59.062Z,100330.62
2023-10-06T18:18:27.239Z,100337.06
2023-10-06T18:20:55.329Z,100338.45
2023-10-06T18:23:23.571Z,100336.17
2023-10-06T18:25:51.637Z,100344.27
2023-10-06T18:28:21.703Z,100348.73
2023-10-06T18:30:50.311Z,100347.79
2023-10-06T18:33:18.824Z,100352.75
2023-10-06T18:35:46.938Z,100353.80
2023-10-06T18:38:14.973Z,100356.58
2023-10-06T18:40:57.334Z,100360.73
2023-10-06T18:43:25.988Z,100366.44
2023-10-06T18:45:57.020Z,100360.77
2023-10-06T18:48:25.384Z,100365.83
2023-10-06T18:50:57.743Z,100368.23
2023-10-06T18:53:26.122Z,100371.92
2023-10-06T18:55:54.041Z,100372.77
2023-10-06T18:58:21.942Z,100376.17
2023-10-06T19:00:51.045Z,100377.48
2023-10-06T19:03:20.048Z,100381.52
2023-10-06T19:05:49.060Z,100383.36
2023-10-06T19:08:17.035Z,100386.40
2023-10-06T19:10:47.103Z,100388.19
2023-10-06T19:13:15.466Z,100393.36
2023-10-06T19:15:43.784Z,100396.48
2023-10-06T19:18:12.023Z,100397.73
2023-10-06T19:20:40.155Z,100400.50
2023-10-06T19:23:11.026Z,100402.90
2023-10-06T19:25:45.271Z,100399.05
2023-10-06T19:28:13.422Z,100402.01
2023-10-06T19:30:42.086Z,100409.65
2023-10-06T19:33:09.941Z,100402.56
2023-10-06T19:35:39.742Z,100412.23
2023-10-06T19:38:09.222Z,100409.52
2023-10-06T19:40:37.622Z,100413.52
2023-10-06T19:43:07.220Z,100415.39
2023-10-06T19:45:35.146Z,100419.26
2023-10-06T19:48:03.584Z,100419.05
2023-10-06T19:50:31.412Z,100415.98
2023-10-06T19:52:59.623Z,100417.85
2023-10-06T19:55:28.148Z,100419.69
2023-10-06T19:57:56.774Z,100420.52
2023-10-06T20:00:27.479Z,100418.65
2023-10-06T20:02:57.063Z,100420.40
2023-10-06T20:05:26.915Z,100424.84
2023-10-06T20:07:54.903Z,100428.73
2023-10-06T20:10:23.269Z,100427.25
2023-10-06T20:12:52.678Z,100428.44
2023-10-06T20:15:20.800Z,100430.14
2023-10-06T20:17:48.917Z,100426.89
2023-10-06T20:20:22.794Z,100430.13
2023-10-06T20:22:52.947Z,100432.02
2023-10-06T20:25:23.754Z,100435.62
2023-10-06T20:27:53.014Z,100438.83
2023-10-06T20:30:23.512Z,100441.34
2023-10-06T20:32:57.861Z,100443.16
2023-10-06T20:35:29.085Z,100447.62
2023-10-06T20:37:56.987Z,100450.31
2023-10-06T20:40:29.279Z,100454.04
2023-10-06T20:42:59.284Z,100460.73
2023-10-06T20:45:28.889Z,100464.49
2023-10-06T20:47:57.410Z,100466.52
2023-10-06T20:50:25.770Z,100465.94
2023-10-06T20:52:54.620Z,100460.63
2023-10-06T20:55:23.084Z,100461.02
2023-10-06T20:57:51.450Z,100462.69
2023-10-06T21:00:19.835Z,100465.42
2023-10-06T21:02:48.214Z,100464.41
2023-10-06T21:05:20.960Z,100466.17
2023-10-06T21:07:49.882Z,100459.04
2023-10-06T21:10:18.933Z,100458.45
2023-10-06T21:12:47.245Z,100452.72
2023-10-06T21:15:15.861Z,100453.49
2023-10-06T21:17:44.468Z,100451.30
2023-10-06T21:20:17.247Z,100450.90
2023-10-06T21:22:45.437Z,100446.48
2023-10-06T21:25:18.732Z,100448.42
2023-10-06T21:27:47.227Z,100455.58
2023-10-06T21:30:17.494Z,100457.96
2023-10-06T21:32:46.516Z,100459.07
2023-10-06T21:35:16.038Z,100461.90
2023-10-06T21:37:46.208Z,100463.60
2023-10-06T21:40:14.515Z,100466.56
2023-10-06T21:42:42.750Z,100463.52
2023-10-06T21:45:11.349Z,100468.33
2023-10-06T21:47:39.625Z,100465.23
2023-10-06T21:50:08.152Z,100465.36
2023-10-06T21:52:36.991Z,100463.42
2023-10-06T21:55:06.519Z,100469.70
2023-10-06T21:57:36.269Z,100471.19
2023-10-06T22:00:24.914Z,100476.69
2023-10-06T22:02:56.072Z,100477.48
2023-10-06T22:05:24.082Z,100476.36
2023-10-06T22:07:52.247Z,100485.27
2023-10-06T22:10:20.655Z,100487.57
2023-10-06T22:12:52.529Z,100489.11
2023-10-06T22:15:21.205Z,100491.39
2023-10-06T22:17:49.086Z,100498.41
2023-10-06T22:20:17.697Z,100499.50
2023-10-06T22:22:45.678Z,100501.09
2023-10-06T22:25:14.687Z,100505.73
2023-10-06T22:27:44.060Z,100510.77
2023-10-06T22:30:12.754Z,100508.52
2023-10-06T22:32:43.616Z,100509.95
2023-10-06T22:35:11.741Z,100505.44
2023-10-06T22:37:40.050Z,100509.05
2023-10-06T22:40:08.748Z,100506.24
2023-10-06T22:42:37.002Z,100504.83
2023-10-06T22:45:05.893Z,100507.02
2023-10-06T22:47:34.272Z,100509.70
2023-10-06T22:50:02.644Z,100505.55
2023-10-06T22:52:30.606Z,100507.01
2023-10-06T22:54:59.161Z,100507.08
2023-10-06T22:57:26.919Z,100508.60
2023-10-06T22:59:54.752Z,100506.88
2023-10-06T23:02:23.388Z,100513.81
2023-10-06T23:04:51.290Z,100507.66
2023-10-06T23:07:19.184Z,100510.05
2023-10-06T23:09:47.043Z,100509.52
2023-10-06T23:12:15.488Z,100506.44
2023-10-06T23:14:43.745Z,100504.09
2023-10-06T23:17:12.878Z,100497.11
2023-10-06T23:19:40.826Z,100504.05
2023-10-06T23:22:08.653Z,100507.18
2023-10-06T23:24:51.842Z,100512.77
2023-10-06T23:27:23.595Z,100516.96
2023-10-06T23:29:51.522Z,100518.17
2023-10-06T23:32:19.567Z,100521.67
2023-10-06T23:34:47.398Z,100518.67
2023-10-06T23:37:17.782Z,100525.32
2023-10-06T23:39:47.828Z,100519.81
2023-10-06T23:42:16.210Z,100519.20
2023-10-06T23:44:44.133Z,100520.77
2023-10-06T23:47:15.944Z,100523.13
2023-10-06T23:49:47.601Z,100524.95
2023-10-06T23:52:15.613Z,100516.34
2023-10-06T23:54:43.999Z,100510.75
2023-10-06T23:57:16.264Z,100510.60
2023-10-06T23:59:53.106Z,100515.27
